Time;durP1;ratioP1;P1;durP2;ratioP2;P2;SDS_P1;SDS_P2;PMS_P1;PMS_P2;Temp;Humidity;BMP_temperature;BMP_pressure;BME280_temperature;BME280_humidity;BME280_pressure;Samples;Min_cycle;Max_cycle;Signal;HPM_P1;HPM_P2
2023/09/26 00:03:20;;;;;;;9.23;4.73;;;;;;;7.58;100.00;96663.75;7415237;19;20384;-94
2023/09/26 00:06:47;;;;;;;5.60;4.27;;;;;;;6.05;100.00;96424.53;7415417;19;20384;-93
2023/09/26 00:09:52;;;;;;;8.00;4.43;;;;;;;7.40;100.00;96661.00;7415086;19;20827;-94
2023/09/26 00:13:11;;;;;;;5.00;4.03;;;;;;;6.12;100.00;96478.19;7416765;19;20373;-94
2023/09/26 00:16:17;;;;;;;4.53;4.13;;;;;;;7.36;100.00;96662.69;7416304;19;20380;-94
2023/09/26 00:19:05;;;;;;;5.13;4.63;;;;;;;7.42;100.00;96655.44;7429516;19;20416;-92
2023/09/26 00:21:47;;;;;;;5.13;4.70;;;;;;;7.52;100.00;96671.00;7427481;19;20408;-96
2023/09/26 00:24:22;;;;;;;5.10;4.70;;;;;;;6.66;100.00;96525.66;7421063;19;20396;-94
2023/09/26 00:27:03;;;;;;;12.43;5.53;;;;;;;7.33;100.00;96660.63;7413303;19;20401;-94
2023/09/26 00:29:47;;;;;;;4.93;3.80;;;;;;;6.74;100.00;96567.00;7412083;19;20385;-95
2023/09/26 00:32:30;;;;;;;4.30;4.00;;;;;;;5.87;100.00;96421.69;7417015;19;20380;-94
2023/09/26 00:35:12;;;;;;;5.27;4.70;;;;;;;5.85;100.00;96447.47;7415476;19;20438;-94
2023/09/26 00:37:53;;;;;;;4.80;4.50;;;;;;;5.55;100.00;96411.31;7412303;19;20397;-94
2023/09/26 00:40:40;;;;;;;5.90;5.00;;;;;;;5.71;100.00;96430.94;7417935;19;20417;-94
2023/09/26 00:43:23;;;;;;;4.83;4.13;;;;;;;5.62;100.00;96427.47;7413932;19;20381;-92
2023/09/26 00:46:05;;;;;;;5.43;4.27;;;;;;;6.07;100.00;96501.91;7413210;19;20386;-95
2023/09/26 00:48:46;;;;;;;3.63;3.40;;;;;;;7.10;100.00;96665.06;7414363;19;20393;-94
2023/09/26 00:51:30;;;;;;;3.70;3.40;;;;;;;6.11;100.00;96537.00;7413366;19;20408;-94
2023/09/26 00:54:01;;;;;;;4.67;4.27;;;;;;;5.52;100.00;96411.91;7418712;19;20369;-94
2023/09/26 00:56:43;;;;;;;14.20;5.37;;;;;;;5.88;100.00;96477.59;7416367;19;20413;-94
2023/09/26 00:59:26;;;;;;;4.40;4.10;;;;;;;5.39;100.00;96410.06;7417340;19;20412;-94
2023/09/26 01:02:08;;;;;;;4.20;3.90;;;;;;;7.15;100.00;96655.50;7415212;19;20416;-95
2023/09/26 01:04:49;;;;;;;4.60;4.07;;;;;;;6.27;100.00;96520.94;7413785;19;20380;-94
2023/09/26 01:07:31;;;;;;;4.17;3.77;;;;;;;5.34;100.00;96416.16;7415548;19;20392;-94
2023/09/26 01:10:12;;;;;;;6.03;3.57;;;;;;;5.59;100.00;96460.28;7414995;19;20416;-94
2023/09/26 01:12:53;;;;;;;7.47;4.53;;;;;;;5.23;100.00;96423.44;7417322;19;20396;-94
2023/09/26 01:15:39;;;;;;;4.40;4.10;;;;;;;5.49;100.00;96420.38;7413044;19;20381;-94
2023/09/26 01:18:23;;;;;;;3.47;3.27;;;;;;;7.04;100.00;96647.06;7410875;19;20710;-94
2023/09/26 01:21:05;;;;;;;4.60;4.20;;;;;;;6.14;100.00;96498.88;7410469;19;20512;-93
2023/09/26 01:23:56;;;;;;;5.70;3.53;;;;;;;5.44;100.00;96399.47;7422736;19;20432;-94
2023/09/26 01:26:37;;;;;;;5.30;3.70;;;;;;;6.46;100.00;96540.00;7430187;19;20425;-94
2023/09/26 01:29:18;;;;;;;4.43;3.43;;;;;;;7.07;100.00;96649.09;7424912;19;20404;-93
2023/09/26 01:31:59;;;;;;;6.80;4.67;;;;;;;6.43;100.00;96546.63;7411525;19;20448;-94
2023/09/26 01:34:40;;;;;;;3.67;3.40;;;;;;;7.04;100.00;96633.91;7413531;19;20408;-94
2023/09/26 01:37:21;;;;;;;4.33;4.03;;;;;;;6.83;100.00;96636.19;7413691;19;20403;-94
2023/09/26 01:40:03;;;;;;;4.87;4.47;;;;;;;6.78;100.00;96637.06;7414090;19;20384;-95
2023/09/26 01:42:49;;;;;;;3.70;3.43;;;;;;;6.13;100.00;96542.72;7409757;19;20376;-94
2023/09/26 01:45:29;;;;;;;7.33;4.23;;;;;;;6.48;100.00;96507.13;7410606;19;20376;-94
2023/09/26 01:48:12;;;;;;;3.07;2.77;;;;;;;7.22;100.00;96611.97;7408527;19;20416;-94
2023/09/26 01:50:53;;;;;;;6.30;3.40;;;;;;;7.34;100.00;96651.66;7410462;19;20412;-94
2023/09/26 01:53:34;;;;;;;3.67;3.37;;;;;;;5.38;100.00;96375.22;7416092;19;20396;-95
2023/09/26 01:56:15;;;;;;;2.83;2.70;;;;;;;6.30;100.00;96539.53;7412752;19;20383;-94
2023/09/26 01:58:56;;;;;;;3.63;3.33;;;;;;;6.94;100.00;96619.13;7415247;19;21067;-95
2023/09/26 02:01:37;;;;;;;3.70;3.50;;;;;;;7.33;100.00;96658.00;7419911;19;20420;-94
2023/09/26 02:04:18;;;;;;;3.73;3.47;;;;;;;6.17;100.00;96498.31;7415874;19;20364;-94
2023/09/26 02:06:58;;;;;;;4.10;3.70;;;;;;;7.01;100.00;96650.28;7412917;19;20397;-94
2023/09/26 02:09:39;;;;;;;4.30;3.93;;;;;;;6.93;100.00;96649.13;7412713;19;20399;-93
2023/09/26 02:12:20;;;;;;;3.33;3.13;;;;;;;5.90;100.00;96513.00;7411300;19;20778;-94
2023/09/26 02:15:04;;;;;;;7.67;4.30;;;;;;;5.04;100.00;96418.25;7414629;19;20388;-94
2023/09/26 02:17:45;;;;;;;5.27;3.27;;;;;;;5.98;100.00;96547.50;7412508;19;20439;-93
2023/09/26 02:20:26;;;;;;;6.30;4.10;;;;;;;5.79;100.00;96537.84;7413494;19;20412;-94
2023/09/26 02:23:25;;;;;;;5.87;3.67;;;;;;;6.56;100.00;96649.34;7410481;19;20912;-94
2023/09/26 02:26:47;;;;;;;;;;;;;;;;;;;;;
2023/09/26 02:30:03;;;;;;;3.80;3.50;;;;;;;5.39;100.00;96465.91;7406492;19;20381;-95
2023/09/26 02:36:28;;;;;;;4.37;3.63;;;;;;;6.61;100.00;96641.38;7409270;19;20384;-94
2023/09/26 02:42:50;;;;;;;4.80;4.30;;;;;;;6.47;100.00;96631.63;7408765;19;20446;-94
2023/09/26 02:49:10;;;;;;;4.90;4.60;;;;;;;6.13;100.00;96625.94;7414457;19;20324;-95
2023/09/26 02:52:36;;;;;;;4.53;4.13;;;;;;;6.22;100.00;96629.47;7409969;19;20381;-94
2023/09/26 02:59:15;;;;;;;4.87;4.40;;;;;;;5.07;100.00;96435.22;7418205;19;20472;-94
2023/09/26 03:01:59;;;;;;;4.20;3.80;;;;;;;6.20;100.00;96621.13;7415369;19;20431;-94
2023/09/26 03:04:48;;;;;;;4.10;3.77;;;;;;;6.17;100.00;96621.69;7415190;19;20388;-94
2023/09/26 03:07:29;;;;;;;5.00;3.63;;;;;;;6.22;100.00;96625.00;7414363;19;20391;-94
2023/09/26 03:10:10;;;;;;;3.43;3.20;;;;;;;5.09;100.00;96485.53;7427412;19;20476;-96
2023/09/26 05:01:36;;;;;;;6.50;3.30;;;;;;;4.75;100.00;96470.06;7428972;19;20422;-94
2023/09/26 05:04:28;;;;;;;6.73;4.20;;;;;;;4.97;100.00;96480.75;7427284;19;20384;-95
2023/09/26 05:07:32;;;;;;;5.10;4.13;;;;;;;5.42;100.00;96549.22;7376740;19;20474;-94
2023/09/26 05:10:19;;;;;;;7.00;4.33;;;;;;;5.66;100.00;96606.78;7418516;19;20412;-94
2023/09/26 05:16:03;;;;;;;5.70;4.50;;;;;;;3.87;100.00;96390.41;7417583;19;20435;-94
2023/09/26 05:18:44;;;;;;;4.53;4.23;;;;;;;4.03;100.00;96367.47;7425989;19;20402;-94
2023/09/26 05:21:42;;;;;;;7.27;4.80;;;;;;;4.24;100.00;96399.34;7426241;19;20398;-94
2023/09/26 05:27:56;;;;;;;4.67;4.27;;;;;;;5.68;100.00;96609.13;7426203;19;20359;-94
2023/09/26 06:14:41;;;;;;;6.53;5.80;;;;;;;5.85;100.00;96612.75;7403592;19;20366;-93
2023/09/26 06:18:07;;;;;;;8.30;7.00;;;;;;;5.85;100.00;96614.59;7413363;19;20400;-92
2023/09/26 06:21:25;;;;;;;7.53;5.57;;;;;;;5.99;100.00;96612.03;7400327;19;20459;-93
2023/09/26 06:30:52;;;;;;;6.27;5.47;;;;;;;5.22;100.00;96495.28;7400382;19;20408;-93
2023/09/26 06:37:43;;;;;;;13.87;6.70;;;;;;;5.23;100.00;96444.41;7400609;19;20451;-93
2023/09/26 06:58:28;;;;;;;11.60;8.97;;;;;;;8.22;100.00;96633.50;7396101;19;20366;-93
2023/09/26 07:01:43;;;;;;;8.87;8.07;;;;;;;8.65;100.00;96640.84;7401815;19;20401;-94
2023/09/26 07:44:49;;;;;;;13.93;8.30;;;;;;;9.63;100.00;96470.63;7411765;19;20977;-94
2023/09/26 07:48:40;;;;;;;11.30;10.03;;;;;;;11.03;100.00;96657.34;7408176;19;20347;-94
2023/09/26 09:35:31;;;;;;;12.93;11.93;;;;;;;12.99;100.00;96479.81;7400126;19;20432;-93
2023/09/26 09:38:37;;;;;;;15.17;11.10;;;;;;;12.91;100.00;96443.56;7411054;19;20407;-94
2023/09/26 09:41:43;;;;;;;11.87;10.57;;;;;;;13.18;100.00;96454.50;7411810;19;20448;-94
2023/09/26 09:44:26;;;;;;;13.03;11.70;;;;;;;13.68;100.00;96543.50;7416241;19;20507;-92
2023/09/26 09:48:10;;;;;;;12.37;11.17;;;;;;;13.08;100.00;96482.31;7417461;19;20381;-94
2023/09/26 09:54:01;;;;;;;11.73;10.13;;;;;;;13.81;100.00;96598.91;7408427;19;20372;-94
2023/09/26 10:04:31;;;;;;;12.27;11.13;;;;;;;12.98;100.00;96429.72;7406354;19;20352;-94
2023/09/26 10:15:13;;;;;;;11.40;10.30;;;;;;;13.26;100.00;96438.47;7407965;19;20372;-94
2023/09/26 10:19:03;;;;;;;11.83;10.73;;;;;;;14.31;100.00;96596.75;7409806;19;20353;-94
2023/09/26 10:26:53;;;;;;;10.50;9.40;;;;;;;13.58;100.00;96422.56;7410517;19;20344;-95
2023/09/26 10:37:38;;;;;;;8.83;8.00;;;;;;;15.64;100.00;96589.41;7415874;19;20354;-94
2023/09/26 10:40:55;;;;;;;9.77;8.87;;;;;;;14.65;100.00;96414.31;7415779;19;20396;-95
2023/09/26 10:43:36;;;;;;;8.60;7.90;;;;;;;15.67;100.00;96563.94;7414427;19;20384;-94
2023/09/26 10:49:55;;;;;;;8.47;7.67;;;;;;;16.01;100.00;96558.81;7414461;19;20372;-95
2023/09/26 11:02:41;;;;;;;8.70;7.90;;;;;;;15.01;100.00;96435.19;7410159;19;20356;-94
2023/09/26 11:06:28;;;;;;;10.47;7.97;;;;;;;15.89;100.00;96562.41;7413463;19;20381;-94
2023/09/26 11:09:40;;;;;;;10.70;8.87;;;;;;;16.23;100.00;96598.06;7414559;19;20373;-95
2023/09/26 11:12:35;;;;;;;9.53;8.63;;;;;;;15.56;100.00;96522.97;7414356;19;20397;-94
2023/09/26 11:30:46;;;;;;;;;;;;;;;;;;;;;
2023/09/26 11:33:29;;;;;;;8.57;7.80;;;;;;;17.47;100.00;96398.59;7422229;19;20425;-94
2023/09/26 11:36:23;;;;;;;7.20;6.60;;;;;;;19.07;100.00;96595.22;7425129;19;20389;-95
2023/09/26 11:42:24;;;;;;;7.73;6.80;;;;;;;19.15;100.00;96583.41;7426438;19;20330;-95
2023/09/26 12:17:41;;;;;;;6.73;6.13;;;;;;;20.05;100.00;96561.13;7404203;19;20444;-95
2023/09/26 12:20:24;;;;;;;7.73;5.90;;;;;;;19.17;100.00;96388.09;7417239;19;20435;-93
2023/09/26 12:23:10;;;;;;;7.03;6.53;;;;;;;19.84;100.00;96456.41;7416923;19;20385;-94
2023/09/26 12:26:15;;;;;;;5.80;5.30;;;;;;;21.43;100.00;96566.72;7424809;19;20388;-94
2023/09/26 12:29:29;;;;;;;6.80;6.13;;;;;;;20.36;100.00;96382.31;7433348;19;20389;-94
2023/09/26 12:32:29;;;;;;;6.57;5.97;;;;;;;21.11;100.00;96462.72;7432730;19;20428;-95
2023/09/26 13:01:44;;;;;;;7.23;6.10;;;;;;;20.89;100.00;96448.59;7336964;19;20444;-95
2023/09/26 13:04:25;;;;;;;6.90;5.23;;;;;;;21.68;100.00;96365.50;7433484;19;20405;-95
2023/09/26 13:07:06;;;;;;;5.20;4.67;;;;;;;23.31;100.00;96502.47;7431931;19;20389;-95
2023/09/26 13:09:56;;;;;;;8.10;5.70;;;;;;;22.20;100.00;96372.75;7431175;19;20401;-95
2023/09/26 13:12:48;;;;;;;8.10;5.90;;;;;;;22.40;100.00;96424.88;7434319;19;20396;-94
2023/09/26 13:15:45;;;;;;;5.70;5.20;;;;;;;22.27;99.43;96345.72;7433527;19;20404;-95
2023/09/26 13:19:29;;;;;;;5.77;5.10;;;;;;;21.66;100.00;96343.63;7429018;19;20409;-95
2023/09/26 13:22:49;;;;;;;;;;;;;;;;;;;;;
2023/09/26 13:26:27;;;;;;;5.67;5.17;;;;;;;23.76;99.52;96521.91;7429742;19;20397;-94
2023/09/26 13:50:45;;;;;;;5.90;5.10;;;;;;;23.79;93.43;96517.66;7385847;19;20439;-95
2023/09/26 13:53:32;;;;;;;5.37;4.97;;;;;;;23.34;93.79;96433.41;7430160;19;20400;-94
2023/09/26 13:56:13;;;;;;;6.67;5.17;;;;;;;22.50;95.13;96328.91;7428392;19;20412;-96
2023/09/26 13:59:04;;;;;;;9.13;5.10;;;;;;;24.67;91.90;96517.41;7430095;19;20419;-95
2023/09/26 14:01:48;;;;;;;6.47;5.87;;;;;;;24.28;88.91;96418.81;7425952;19;20425;-94
2023/09/26 14:04:39;;;;;;;5.33;4.43;;;;;;;25.30;85.45;96528.25;7432165;19;20419;-96
2023/09/26 14:07:22;;;;;;;4.90;4.50;;;;;;;23.62;86.38;96322.31;7428336;19;20381;-95
2023/09/26 14:10:03;;;;;;;5.00;4.50;;;;;;;23.87;84.46;96325.38;7428179;19;20392;-96
2023/09/26 14:12:44;;;;;;;5.90;5.30;;;;;;;22.88;88.03;96335.78;7429100;19;20392;-94
2023/09/26 14:27:37;;;;;;;7.33;5.30;;;;;;;23.60;86.98;96324.69;7355898;19;20443;-92
2023/09/26 15:11:22;;;;;;;5.70;5.20;;;;;;;21.84;100.00;96451.13;7413332;19;20436;-96
2023/09/26 15:14:09;;;;;;;4.80;4.40;;;;;;;22.67;100.00;96497.75;7427644;19;20437;-96
2023/09/26 15:17:08;;;;;;;5.50;5.00;;;;;;;21.66;100.00;96367.06;7427150;19;20388;-95
2023/09/26 15:45:01;;;;;;;6.73;5.13;;;;;;;19.74;100.00;96479.41;7354358;19;20460;-94
2023/09/26 16:35:01;;;;;;;7.10;6.40;;;;;;;17.35;100.00;96335.50;7384570;19;20424;-96
2023/09/26 16:38:01;;;;;;;9.00;5.80;;;;;;;18.14;100.00;96472.53;7428108;19;20418;-94
2023/09/26 16:40:50;;;;;;;8.40;6.40;;;;;;;17.10;100.00;96340.66;7428933;19;20401;-94
2023/09/26 16:43:40;;;;;;;6.47;5.83;;;;;;;17.80;100.00;96472.66;7434748;19;20388;-96
2023/09/26 16:46:34;;;;;;;6.80;6.20;;;;;;;17.58;100.00;96441.50;7433233;19;20382;-94
2023/09/26 16:49:33;;;;;;;6.50;5.67;;;;;;;16.40;100.00;96285.34;7430569;19;20416;-94
2023/09/26 16:52:14;;;;;;;6.30;5.53;;;;;;;17.09;100.00;96381.06;7429043;19;20393;-95
2023/09/26 16:54:55;;;;;;;7.73;6.80;;;;;;;16.87;100.00;96374.75;7427054;19;20389;-94
2023/09/26 16:57:46;;;;;;;7.90;7.10;;;;;;;17.25;100.00;96475.16;7424265;19;20381;-94
2023/09/26 17:00:49;;;;;;;8.00;6.30;;;;;;;15.78;100.00;96255.66;7427279;19;20405;-94
2023/09/26 17:04:21;;;;;;;7.17;6.60;;;;;;;17.19;100.00;96471.25;7425871;19;20448;-95
2023/09/26 17:11:38;;;;;;;7.67;6.97;;;;;;;15.74;100.00;96280.69;7424891;19;20397;-95
2023/09/26 17:14:57;;;;;;;;;;;;;;;;;;;;;
2023/09/26 17:17:47;;;;;;;11.70;7.00;;;;;;;16.86;100.00;96489.97;7427718;19;20398;-96
2023/09/26 17:20:42;;;;;;;7.70;7.10;;;;;;;16.38;100.00;96429.03;7427971;19;20432;-96
2023/09/26 17:23:32;;;;;;;11.13;8.67;;;;;;;16.77;100.00;96484.88;7430911;19;20399;-95
2023/09/26 17:26:34;;;;;;;7.90;7.10;;;;;;;15.78;100.00;96372.94;7428895;19;20392;-96
2023/09/26 17:29:18;;;;;;;9.87;8.50;;;;;;;16.05;100.00;96479.66;7433606;19;20413;-96
2023/09/26 17:32:05;;;;;;;8.70;7.80;;;;;;;15.93;100.00;96470.69;7406227;19;20455;-93
2023/09/26 17:34:40;;;;;;;8.73;7.00;;;;;;;15.86;100.00;96467.13;7403533;19;20391;-93
2023/09/26 17:37:22;;;;;;;7.80;7.00;;;;;;;15.51;100.00;96422.00;7403360;19;20393;-93
2023/09/26 17:39:58;;;;;;;9.40;8.43;;;;;;;15.72;100.00;96482.91;7401896;19;20392;-93
2023/09/26 17:42:26;;;;;;;13.10;8.63;;;;;;;15.41;100.00;96481.19;7402352;19;20401;-93
2023/09/26 17:45:10;;;;;;;10.20;7.73;;;;;;;15.33;100.00;96497.03;7430697;19;20453;-96
2023/09/26 17:47:51;;;;;;;11.80;9.67;;;;;;;14.39;100.00;96357.13;7425413;19;20373;-94
2023/09/26 17:51:25;;;;;;;13.97;9.40;;;;;;;15.34;100.00;96493.25;7422949;19;20468;-94
2023/09/26 17:58:21;;;;;;;10.70;9.47;;;;;;;13.77;100.00;96297.75;7426624;19;20392;-95
2023/09/26 18:01:53;;;;;;;11.27;10.17;;;;;;;13.54;100.00;96288.88;7424323;19;20436;-96
2023/09/26 20:04:00;;;;;;;12.13;10.57;;;;;;;12.44;100.00;96504.38;7337302;19;20439;-96
2023/09/26 20:07:28;;;;;;;18.17;10.70;;;;;;;12.39;100.00;96505.38;7434196;19;20373;-95
2023/09/26 20:14:24;;;;;;;14.90;11.47;;;;;;;11.13;100.00;96340.19;7434151;19;20360;-95
2023/09/26 20:22:13;;;;;;;15.30;9.77;;;;;;;10.90;100.00;96288.78;7431043;19;20400;-95
2023/09/26 20:33:24;;;;;;;19.00;10.70;;;;;;;10.67;100.00;96283.13;7432552;19;20356;-95
2023/09/26 20:40:34;;;;;;;15.00;9.53;;;;;;;10.56;100.00;96279.38;7430326;19;20344;-95
2023/09/26 20:52:04;;;;;;;15.27;10.23;;;;;;;12.04;100.00;96494.44;7338434;19;20451;-95
2023/09/26 20:55:00;;;;;;;9.83;8.83;;;;;;;11.79;100.00;96509.56;7430284;19;20373;-96
2023/09/26 20:57:44;;;;;;;15.20;9.07;;;;;;;10.78;100.00;96400.59;7428199;19;20377;-96
2023/09/26 21:00:48;;;;;;;10.73;8.20;;;;;;;11.56;100.00;96508.34;7429358;19;20405;-95
2023/09/26 23:35:34;;;;;;;8.40;6.63;;;;;;;8.73;100.00;96300.06;7425011;19;20789;-95
2023/09/26 23:39:00;;;;;;;7.10;6.43;;;;;;;8.97;100.00;96327.75;7420328;19;20360;-94
2023/09/26 23:41:58;;;;;;;8.07;7.27;;;;;;;10.14;100.00;96495.25;7418541;19;20428;-95
2023/09/26 23:44:56;;;;;;;12.13;7.33;;;;;;;9.94;100.00;96494.88;7424457;19;20396;-94
2023/09/26 23:48:58;;;;;;;6.67;6.07;;;;;;;8.13;100.00;96271.91;7422968;19;20369;-94
